sensor_id;sensor_type;location;lat;lon;timestamp;temperature;humidity
17307;DHT22;8771;48.048;7.682;2023-06-26T00:00:24;22.20;50.80
17307;DHT22;8771;48.048;7.682;2023-06-26T00:05:26;22.10;50.70
17307;DHT22;8771;48.048;7.682;2023-06-26T00:10:32;22.10;50.80
17307;DHT22;8771;48.048;7.682;2023-06-26T00:15:34;22.10;50.80
17307;DHT22;8771;48.048;7.682;2023-06-26T00:20:36;22.00;50.80
17307;DHT22;8771;48.048;7.682;2023-06-26T00:25:39;22.00;50.80
17307;DHT22;8771;48.048;7.682;2023-06-26T00:30:41;21.90;50.80
17307;DHT22;8771;48.048;7.682;2023-06-26T00:35:43;21.90;50.90
17307;DHT22;8771;48.048;7.682;2023-06-26T00:40:47;21.80;51.00
17307;DHT22;8771;48.048;7.682;2023-06-26T00:45:49;21.60;51.20
17307;DHT22;8771;48.048;7.682;2023-06-26T00:50:51;21.40;51.40
17307;DHT22;8771;48.048;7.682;2023-06-26T00:55:54;21.30;51.50
17307;DHT22;8771;48.048;7.682;2023-06-26T01:00:56;21.20;51.60
17307;DHT22;8771;48.048;7.682;2023-06-26T01:05:59;21.10;51.70
17307;DHT22;8771;48.048;7.682;2023-06-26T01:11:04;21.00;51.80
17307;DHT22;8771;48.048;7.682;2023-06-26T01:16:06;21.00;51.80
17307;DHT22;8771;48.048;7.682;2023-06-26T01:21:09;20.90;51.80
17307;DHT22;8771;48.048;7.682;2023-06-26T01:26:19;20.80;51.90
17307;DHT22;8771;48.048;7.682;2023-06-26T01:31:22;20.80;52.00
17307;DHT22;8771;48.048;7.682;2023-06-26T01:36:24;20.70;52.00
17307;DHT22;8771;48.048;7.682;2023-06-26T01:41:28;20.70;52.00
17307;DHT22;8771;48.048;7.682;2023-06-26T01:46:36;20.70;52.60
17307;DHT22;8771;48.048;7.682;2023-06-26T01:51:42;20.60;52.10
17307;DHT22;8771;48.048;7.682;2023-06-26T01:56:49;20.50;52.10
17307;DHT22;8771;48.048;7.682;2023-06-26T02:01:52;20.40;52.20
17307;DHT22;8771;48.048;7.682;2023-06-26T02:06:54;20.50;52.20
17307;DHT22;8771;48.048;7.682;2023-06-26T02:11:57;20.50;52.20
17307;DHT22;8771;48.048;7.682;2023-06-26T02:17:00;20.50;52.20
17307;DHT22;8771;48.048;7.682;2023-06-26T02:22:02;20.50;52.30
17307;DHT22;8771;48.048;7.682;2023-06-26T02:27:05;20.40;52.20
17307;DHT22;8771;48.048;7.682;2023-06-26T02:32:07;20.40;52.20
17307;DHT22;8771;48.048;7.682;2023-06-26T02:37:09;20.40;52.30
17307;DHT22;8771;48.048;7.682;2023-06-26T02:42:12;20.30;52.30
17307;DHT22;8771;48.048;7.682;2023-06-26T02:47:16;20.30;52.40
17307;DHT22;8771;48.048;7.682;2023-06-26T02:52:18;20.30;52.40
17307;DHT22;8771;48.048;7.682;2023-06-26T02:57:21;20.20;52.50
17307;DHT22;8771;48.048;7.682;2023-06-26T03:02:25;20.10;52.50
17307;DHT22;8771;48.048;7.682;2023-06-26T03:07:27;20.10;52.60
17307;DHT22;8771;48.048;7.682;2023-06-26T03:12:31;20.00;52.60
17307;DHT22;8771;48.048;7.682;2023-06-26T03:17:33;20.00;52.70
17307;DHT22;8771;48.048;7.682;2023-06-26T03:22:35;20.00;52.70
17307;DHT22;8771;48.048;7.682;2023-06-26T03:27:38;20.00;52.70
17307;DHT22;8771;48.048;7.682;2023-06-26T03:32:40;20.00;52.70
17307;DHT22;8771;48.048;7.682;2023-06-26T03:37:42;20.00;52.80
17307;DHT22;8771;48.048;7.682;2023-06-26T03:42:45;20.00;52.80
17307;DHT22;8771;48.048;7.682;2023-06-26T03:47:48;20.00;52.80
17307;DHT22;8771;48.048;7.682;2023-06-26T03:52:50;19.90;52.70
17307;DHT22;8771;48.048;7.682;2023-06-26T03:57:53;20.00;52.80
17307;DHT22;8771;48.048;7.682;2023-06-26T04:02:55;19.90;52.80
17307;DHT22;8771;48.048;7.682;2023-06-26T04:07:57;19.90;52.90
17307;DHT22;8771;48.048;7.682;2023-06-26T04:13:01;19.90;52.90
17307;DHT22;8771;48.048;7.682;2023-06-26T04:18:03;19.90;52.80
17307;DHT22;8771;48.048;7.682;2023-06-26T04:23:05;19.90;52.90
17307;DHT22;8771;48.048;7.682;2023-06-26T04:28:08;19.90;53.00
17307;DHT22;8771;48.048;7.682;2023-06-26T04:33:12;19.90;52.90
17307;DHT22;8771;48.048;7.682;2023-06-26T04:38:17;19.90;52.90
17307;DHT22;8771;48.048;7.682;2023-06-26T04:43:20;20.00;53.00
17307;DHT22;8771;48.048;7.682;2023-06-26T04:48:22;20.10;52.90
17307;DHT22;8771;48.048;7.682;2023-06-26T04:53:24;20.30;52.70
17307;DHT22;8771;48.048;7.682;2023-06-26T04:58:27;20.70;52.40
17307;DHT22;8771;48.048;7.682;2023-06-26T05:03:29;21.10;52.00
17307;DHT22;8771;48.048;7.682;2023-06-26T05:08:31;21.50;51.70
17307;DHT22;8771;48.048;7.682;2023-06-26T05:13:34;21.80;51.30
17307;DHT22;8771;48.048;7.682;2023-06-26T05:18:37;22.20;51.10
17307;DHT22;8771;48.048;7.682;2023-06-26T05:23:39;22.60;50.90
17307;DHT22;8771;48.048;7.682;2023-06-26T05:28:43;23.00;50.60
17307;DHT22;8771;48.048;7.682;2023-06-26T05:33:49;23.30;50.40
17307;DHT22;8771;48.048;7.682;2023-06-26T05:38:52;23.70;50.30
17307;DHT22;8771;48.048;7.682;2023-06-26T05:43:56;24.00;50.00
17307;DHT22;8771;48.048;7.682;2023-06-26T05:48:58;24.40;49.80
17307;DHT22;8771;48.048;7.682;2023-06-26T05:54:02;24.80;50.20
17307;DHT22;8771;48.048;7.682;2023-06-26T05:59:07;25.20;49.40
17307;DHT22;8771;48.048;7.682;2023-06-26T06:04:09;25.60;49.20
17307;DHT22;8771;48.048;7.682;2023-06-26T06:09:11;25.90;49.00
17307;DHT22;8771;48.048;7.682;2023-06-26T06:14:15;26.30;48.90
17307;DHT22;8771;48.048;7.682;2023-06-26T06:19:17;26.60;48.70
17307;DHT22;8771;48.048;7.682;2023-06-26T06:24:19;26.80;48.70
17307;DHT22;8771;48.048;7.682;2023-06-26T06:29:23;27.10;48.70
17307;DHT22;8771;48.048;7.682;2023-06-26T06:34:25;27.30;48.60
17307;DHT22;8771;48.048;7.682;2023-06-26T06:39:27;27.60;48.60
17307;DHT22;8771;48.048;7.682;2023-06-26T06:44:30;27.80;48.50
17307;DHT22;8771;48.048;7.682;2023-06-26T06:49:32;28.20;48.30
17307;DHT22;8771;48.048;7.682;2023-06-26T06:54:51;28.60;48.20
17307;DHT22;8771;48.048;7.682;2023-06-26T06:59:54;29.00;48.00
17307;DHT22;8771;48.048;7.682;2023-06-26T07:04:56;29.30;47.90
17307;DHT22;8771;48.048;7.682;2023-06-26T07:09:59;29.60;47.80
17307;DHT22;8771;48.048;7.682;2023-06-26T07:15:03;29.90;47.80
17307;DHT22;8771;48.048;7.682;2023-06-26T07:20:06;30.20;47.70
17307;DHT22;8771;48.048;7.682;2023-06-26T07:25:09;30.40;47.70
17307;DHT22;8771;48.048;7.682;2023-06-26T07:30:12;30.60;47.50
17307;DHT22;8771;48.048;7.682;2023-06-26T07:35:15;30.90;47.50
17307;DHT22;8771;48.048;7.682;2023-06-26T07:40:17;31.00;47.50
17307;DHT22;8771;48.048;7.682;2023-06-26T07:45:20;31.20;47.40
17307;DHT22;8771;48.048;7.682;2023-06-26T07:50:22;31.40;47.50
17307;DHT22;8771;48.048;7.682;2023-06-26T07:55:24;31.40;47.50
17307;DHT22;8771;48.048;7.682;2023-06-26T08:00:28;31.50;47.70
17307;DHT22;8771;48.048;7.682;2023-06-26T08:05:30;31.40;47.90
17307;DHT22;8771;48.048;7.682;2023-06-26T08:10:32;31.50;48.00
17307;DHT22;8771;48.048;7.682;2023-06-26T08:15:36;31.50;47.90
17307;DHT22;8771;48.048;7.682;2023-06-26T08:20:38;31.60;47.90
17307;DHT22;8771;48.048;7.682;2023-06-26T08:25:40;31.80;47.90
17307;DHT22;8771;48.048;7.682;2023-06-26T08:30:43;31.90;47.80
17307;DHT22;8771;48.048;7.682;2023-06-26T08:35:45;32.10;47.80
17307;DHT22;8771;48.048;7.682;2023-06-26T08:40:47;32.20;47.70
17307;DHT22;8771;48.048;7.682;2023-06-26T08:45:50;32.20;47.80
17307;DHT22;8771;48.048;7.682;2023-06-26T08:50:54;32.20;47.90
17307;DHT22;8771;48.048;7.682;2023-06-26T08:55:58;32.20;47.90
17307;DHT22;8771;48.048;7.682;2023-06-26T09:01:02;32.20;47.90
17307;DHT22;8771;48.048;7.682;2023-06-26T09:06:06;32.40;47.80
17307;DHT22;8771;48.048;7.682;2023-06-26T09:11:07;32.70;47.70
17307;DHT22;8771;48.048;7.682;2023-06-26T09:16:11;32.70;47.60
17307;DHT22;8771;48.048;7.682;2023-06-26T09:21:13;32.70;47.70
17307;DHT22;8771;48.048;7.682;2023-06-26T09:26:16;32.70;47.80
17307;DHT22;8771;48.048;7.682;2023-06-26T09:31:20;32.70;47.70
17307;DHT22;8771;48.048;7.682;2023-06-26T09:36:22;32.80;47.70
17307;DHT22;8771;48.048;7.682;2023-06-26T09:41:25;33.00;47.70
17307;DHT22;8771;48.048;7.682;2023-06-26T09:46:30;33.30;47.50
17307;DHT22;8771;48.048;7.682;2023-06-26T09:51:33;33.70;47.20
17307;DHT22;8771;48.048;7.682;2023-06-26T09:56:35;33.90;47.00
17307;DHT22;8771;48.048;7.682;2023-06-26T10:01:40;34.00;47.10
17307;DHT22;8771;48.048;7.682;2023-06-26T10:06:46;33.90;47.20
17307;DHT22;8771;48.048;7.682;2023-06-26T10:11:53;33.90;47.40
17307;DHT22;8771;48.048;7.682;2023-06-26T10:16:58;33.40;47.60
17307;DHT22;8771;48.048;7.682;2023-06-26T10:22:02;32.80;48.30
17307;DHT22;8771;48.048;7.682;2023-06-26T10:27:10;32.50;48.40
17307;DHT22;8771;48.048;7.682;2023-06-26T10:32:17;32.20;48.40
17307;DHT22;8771;48.048;7.682;2023-06-26T10:37:20;31.60;48.80
17307;DHT22;8771;48.048;7.682;2023-06-26T10:42:34;31.30;49.10
17307;DHT22;8771;48.048;7.682;2023-06-26T10:47:41;31.10;49.00
17307;DHT22;8771;48.048;7.682;2023-06-26T10:52:43;31.00;48.80
17307;DHT22;8771;48.048;7.682;2023-06-26T10:57:46;31.10;48.60
17307;DHT22;8771;48.048;7.682;2023-06-26T11:02:51;31.30;48.40
17307;DHT22;8771;48.048;7.682;2023-06-26T11:08:04;31.40;48.30
17307;DHT22;8771;48.048;7.682;2023-06-26T11:13:06;31.40;48.20
17307;DHT22;8771;48.048;7.682;2023-06-26T11:18:09;31.70;47.90
17307;DHT22;8771;48.048;7.682;2023-06-26T11:23:12;32.00;48.00
17307;DHT22;8771;48.048;7.682;2023-06-26T11:28:14;32.10;47.60
17307;DHT22;8771;48.048;7.682;2023-06-26T11:33:17;32.20;47.50
17307;DHT22;8771;48.048;7.682;2023-06-26T11:38:19;32.10;47.70
17307;DHT22;8771;48.048;7.682;2023-06-26T11:43:21;32.20;47.70
17307;DHT22;8771;48.048;7.682;2023-06-26T11:48:26;32.30;47.50
17307;DHT22;8771;48.048;7.682;2023-06-26T11:53:28;32.40;47.50
17307;DHT22;8771;48.048;7.682;2023-06-26T11:58:30;32.50;47.50
17307;DHT22;8771;48.048;7.682;2023-06-26T12:03:34;32.50;47.50
17307;DHT22;8771;48.048;7.682;2023-06-26T12:08:36;32.60;47.60
17307;DHT22;8771;48.048;7.682;2023-06-26T12:13:39;32.80;47.40
17307;DHT22;8771;48.048;7.682;2023-06-26T12:18:46;32.90;47.20
17307;DHT22;8771;48.048;7.682;2023-06-26T12:23:48;33.00;47.30
17307;DHT22;8771;48.048;7.682;2023-06-26T12:29:01;32.90;47.30
17307;DHT22;8771;48.048;7.682;2023-06-26T12:34:09;32.80;47.40
17307;DHT22;8771;48.048;7.682;2023-06-26T12:39:12;32.70;47.40
17307;DHT22;8771;48.048;7.682;2023-06-26T12:44:18;32.70;47.40
17307;DHT22;8771;48.048;7.682;2023-06-26T12:49:29;32.40;47.60
17307;DHT22;8771;48.048;7.682;2023-06-26T12:54:35;32.40;47.70
17307;DHT22;8771;48.048;7.682;2023-06-26T12:59:38;32.40;47.50
17307;DHT22;8771;48.048;7.682;2023-06-26T13:04:41;32.40;47.40
17307;DHT22;8771;48.048;7.682;2023-06-26T13:09:44;32.60;47.20
17307;DHT22;8771;48.048;7.682;2023-06-26T13:14:49;32.60;47.20
17307;DHT22;8771;48.048;7.682;2023-06-26T13:19:52;32.70;47.20
17307;DHT22;8771;48.048;7.682;2023-06-26T13:24:54;32.80;47.00
17307;DHT22;8771;48.048;7.682;2023-06-26T13:29:56;32.80;46.90
17307;DHT22;8771;48.048;7.682;2023-06-26T13:34:59;32.50;47.00
17307;DHT22;8771;48.048;7.682;2023-06-26T13:40:01;32.60;47.00
17307;DHT22;8771;48.048;7.682;2023-06-26T13:45:06;32.70;46.90
17307;DHT22;8771;48.048;7.682;2023-06-26T13:50:10;32.70;46.80
17307;DHT22;8771;48.048;7.682;2023-06-26T13:55:12;32.50;47.00
17307;DHT22;8771;48.048;7.682;2023-06-26T14:00:15;32.50;47.10
17307;DHT22;8771;48.048;7.682;2023-06-26T14:05:26;32.40;47.10
17307;DHT22;8771;48.048;7.682;2023-06-26T14:10:30;32.30;47.10
17307;DHT22;8771;48.048;7.682;2023-06-26T14:15:33;32.30;47.20
17307;DHT22;8771;48.048;7.682;2023-06-26T14:20:39;32.50;47.10
17307;DHT22;8771;48.048;7.682;2023-06-26T14:25:41;32.60;46.90
17307;DHT22;8771;48.048;7.682;2023-06-26T14:30:44;32.50;46.80
17307;DHT22;8771;48.048;7.682;2023-06-26T14:35:47;32.30;46.90
17307;DHT22;8771;48.048;7.682;2023-06-26T14:40:49;32.20;47.00
17307;DHT22;8771;48.048;7.682;2023-06-26T14:45:51;32.10;47.00
17307;DHT22;8771;48.048;7.682;2023-06-26T14:50:54;32.10;47.00
17307;DHT22;8771;48.048;7.682;2023-06-26T14:55:56;32.10;46.80
17307;DHT22;8771;48.048;7.682;2023-06-26T15:00:58;32.20;46.70
17307;DHT22;8771;48.048;7.682;2023-06-26T15:06:02;32.10;46.60
17307;DHT22;8771;48.048;7.682;2023-06-26T15:11:04;31.90;46.80
17307;DHT22;8771;48.048;7.682;2023-06-26T15:16:06;31.90;46.70
17307;DHT22;8771;48.048;7.682;2023-06-26T15:21:09;32.20;46.50
17307;DHT22;8771;48.048;7.682;2023-06-26T15:26:11;32.20;46.30
17307;DHT22;8771;48.048;7.682;2023-06-26T15:31:14;32.30;46.30
17307;DHT22;8771;48.048;7.682;2023-06-26T15:36:17;32.20;46.30
17307;DHT22;8771;48.048;7.682;2023-06-26T15:41:20;32.30;46.20
17307;DHT22;8771;48.048;7.682;2023-06-26T15:46:22;32.40;46.10
17307;DHT22;8771;48.048;7.682;2023-06-26T15:51:25;32.40;46.00
17307;DHT22;8771;48.048;7.682;2023-06-26T15:56:27;32.60;46.10
17307;DHT22;8771;48.048;7.682;2023-06-26T16:01:29;32.60;45.90
17307;DHT22;8771;48.048;7.682;2023-06-26T16:06:32;32.60;45.80
17307;DHT22;8771;48.048;7.682;2023-06-26T16:11:34;32.30;46.10
17307;DHT22;8771;48.048;7.682;2023-06-26T16:16:37;32.20;46.20
17307;DHT22;8771;48.048;7.682;2023-06-26T16:21:40;31.80;46.40
17307;DHT22;8771;48.048;7.682;2023-06-26T16:26:42;31.50;46.70
17307;DHT22;8771;48.048;7.682;2023-06-26T16:31:44;31.40;46.80
17307;DHT22;8771;48.048;7.682;2023-06-26T16:36:48;31.30;46.90
17307;DHT22;8771;48.048;7.682;2023-06-26T16:41:51;31.10;46.80
17307;DHT22;8771;48.048;7.682;2023-06-26T16:46:57;30.90;46.90
17307;DHT22;8771;48.048;7.682;2023-06-26T16:52:00;30.80;47.00
17307;DHT22;8771;48.048;7.682;2023-06-26T16:57:04;30.40;47.20
17307;DHT22;8771;48.048;7.682;2023-06-26T17:02:06;30.00;47.40
17307;DHT22;8771;48.048;7.682;2023-06-26T17:07:09;29.90;47.40
17307;DHT22;8771;48.048;7.682;2023-06-26T17:12:11;29.90;47.30
17307;DHT22;8771;48.048;7.682;2023-06-26T17:17:13;29.90;47.20
17307;DHT22;8771;48.048;7.682;2023-06-26T17:22:19;29.80;47.00
17307;DHT22;8771;48.048;7.682;2023-06-26T17:27:21;29.70;47.10
17307;DHT22;8771;48.048;7.682;2023-06-26T17:32:28;29.70;47.00
17307;DHT22;8771;48.048;7.682;2023-06-26T17:37:31;29.50;47.00
17307;DHT22;8771;48.048;7.682;2023-06-26T17:42:33;29.30;47.20
17307;DHT22;8771;48.048;7.682;2023-06-26T17:47:40;29.20;47.30
17307;DHT22;8771;48.048;7.682;2023-06-26T17:52:44;29.10;47.30
17307;DHT22;8771;48.048;7.682;2023-06-26T17:57:46;29.00;47.30
17307;DHT22;8771;48.048;7.682;2023-06-26T18:02:48;28.80;47.40
17307;DHT22;8771;48.048;7.682;2023-06-26T18:07:51;28.60;47.40
17307;DHT22;8771;48.048;7.682;2023-06-26T18:12:53;28.50;47.40
17307;DHT22;8771;48.048;7.682;2023-06-26T18:17:56;28.50;47.50
17307;DHT22;8771;48.048;7.682;2023-06-26T18:23:00;28.40;47.40
17307;DHT22;8771;48.048;7.682;2023-06-26T18:28:02;28.20;47.40
17307;DHT22;8771;48.048;7.682;2023-06-26T18:33:04;28.00;47.50
17307;DHT22;8771;48.048;7.682;2023-06-26T18:38:07;28.00;47.50
17307;DHT22;8771;48.048;7.682;2023-06-26T18:43:11;27.80;47.50
17307;DHT22;8771;48.048;7.682;2023-06-26T18:48:13;27.60;47.50
17307;DHT22;8771;48.048;7.682;2023-06-26T18:53:16;27.50;47.70
17307;DHT22;8771;48.048;7.682;2023-06-26T18:58:18;27.40;47.70
17307;DHT22;8771;48.048;7.682;2023-06-26T19:03:20;27.30;47.60
17307;DHT22;8771;48.048;7.682;2023-06-26T19:08:24;27.20;47.70
17307;DHT22;8771;48.048;7.682;2023-06-26T19:13:26;27.10;47.80
17307;DHT22;8771;48.048;7.682;2023-06-26T19:18:28;26.90;47.80
17307;DHT22;8771;48.048;7.682;2023-06-26T19:23:31;26.70;48.00
17307;DHT22;8771;48.048;7.682;2023-06-26T19:28:34;26.40;48.10
17307;DHT22;8771;48.048;7.682;2023-06-26T19:33:36;26.20;48.10
17307;DHT22;8771;48.048;7.682;2023-06-26T19:38:39;26.10;48.20
17307;DHT22;8771;48.048;7.682;2023-06-26T19:43:41;26.00;48.20
17307;DHT22;8771;48.048;7.682;2023-06-26T19:48:43;25.80;48.20
17307;DHT22;8771;48.048;7.682;2023-06-26T19:53:46;25.60;48.30
17307;DHT22;8771;48.048;7.682;2023-06-26T19:58:48;25.60;48.30
17307;DHT22;8771;48.048;7.682;2023-06-26T20:03:50;25.50;48.20
17307;DHT22;8771;48.048;7.682;2023-06-26T20:08:53;25.40;48.30
17307;DHT22;8771;48.048;7.682;2023-06-26T20:13:55;25.30;48.30
17307;DHT22;8771;48.048;7.682;2023-06-26T20:18:57;25.20;48.20
17307;DHT22;8771;48.048;7.682;2023-06-26T20:24:00;25.10;48.30
17307;DHT22;8771;48.048;7.682;2023-06-26T20:29:03;25.10;48.30
17307;DHT22;8771;48.048;7.682;2023-06-26T20:39:09;24.90;47.90
17307;DHT22;8771;48.048;7.682;2023-06-26T20:44:12;24.80;48.40
17307;DHT22;8771;48.048;7.682;2023-06-26T20:49:14;24.70;48.50
17307;DHT22;8771;48.048;7.682;2023-06-26T20:54:18;24.60;48.40
17307;DHT22;8771;48.048;7.682;2023-06-26T20:59:22;24.50;48.50
17307;DHT22;8771;48.048;7.682;2023-06-26T21:04:24;24.30;48.50
17307;DHT22;8771;48.048;7.682;2023-06-26T21:09:27;24.30;48.50
17307;DHT22;8771;48.048;7.682;2023-06-26T21:14:29;24.20;48.50
17307;DHT22;8771;48.048;7.682;2023-06-26T21:19:31;24.20;48.50
17307;DHT22;8771;48.048;7.682;2023-06-26T21:24:34;24.00;48.50
17307;DHT22;8771;48.048;7.682;2023-06-26T21:29:36;23.90;48.60
17307;DHT22;8771;48.048;7.682;2023-06-26T21:34:38;23.80;48.60
17307;DHT22;8771;48.048;7.682;2023-06-26T21:39:42;23.70;48.90
17307;DHT22;8771;48.048;7.682;2023-06-26T21:44:44;23.60;48.80
17307;DHT22;8771;48.048;7.682;2023-06-26T21:49:45;23.40;48.90
17307;DHT22;8771;48.048;7.682;2023-06-26T21:54:49;23.30;49.00
17307;DHT22;8771;48.048;7.682;2023-06-26T21:59:51;23.20;49.20
17307;DHT22;8771;48.048;7.682;2023-06-26T22:04:53;23.10;49.20
17307;DHT22;8771;48.048;7.682;2023-06-26T22:09:56;23.00;49.40
17307;DHT22;8771;48.048;7.682;2023-06-26T22:14:58;22.90;49.40
17307;DHT22;8771;48.048;7.682;2023-06-26T22:20:00;22.80;49.40
17307;DHT22;8771;48.048;7.682;2023-06-26T22:25:05;22.70;49.40
17307;DHT22;8771;48.048;7.682;2023-06-26T22:30:08;22.60;49.40
17307;DHT22;8771;48.048;7.682;2023-06-26T22:35:10;22.50;49.40
17307;DHT22;8771;48.048;7.682;2023-06-26T22:40:14;22.50;49.50
17307;DHT22;8771;48.048;7.682;2023-06-26T22:45:17;22.40;49.50
17307;DHT22;8771;48.048;7.682;2023-06-26T22:50:19;22.40;49.50
17307;DHT22;8771;48.048;7.682;2023-06-26T22:55:22;22.40;49.50
17307;DHT22;8771;48.048;7.682;2023-06-26T23:00:25;22.40;49.50
17307;DHT22;8771;48.048;7.682;2023-06-26T23:05:26;22.30;49.50
17307;DHT22;8771;48.048;7.682;2023-06-26T23:10:30;22.30;49.50
17307;DHT22;8771;48.048;7.682;2023-06-26T23:15:32;22.30;49.50
17307;DHT22;8771;48.048;7.682;2023-06-26T23:20:39;22.20;49.50
17307;DHT22;8771;48.048;7.682;2023-06-26T23:25:44;22.10;49.70
17307;DHT22;8771;48.048;7.682;2023-06-26T23:30:46;22.10;49.70
17307;DHT22;8771;48.048;7.682;2023-06-26T23:35:48;22.00;49.70
17307;DHT22;8771;48.048;7.682;2023-06-26T23:40:52;22.00;49.70
17307;DHT22;8771;48.048;7.682;2023-06-26T23:45:53;21.90;49.70
17307;DHT22;8771;48.048;7.682;2023-06-26T23:50:55;22.00;49.80
17307;DHT22;8771;48.048;7.682;2023-06-26T23:55:59;21.90;49.80
